sensor_id;sensor_type;location;lat;lon;timestamp;P1;durP1;ratioP1;P2;durP2;ratioP2
77821;SDS011;67012;53.712;10.728;2024-02-21T06:29:12;24.42;;;11.02;;
77821;SDS011;67012;53.712;10.728;2024-02-21T06:31:39;22.48;;;10.32;;
77821;SDS011;67012;53.712;10.728;2024-02-21T06:34:05;22.27;;;10.55;;
77821;SDS011;67012;53.712;10.728;2024-02-21T06:36:30;20.37;;;9.77;;
77821;SDS011;67012;53.712;10.728;2024-02-21T06:38:55;17.57;;;9.40;;
77821;SDS011;67012;53.712;10.728;2024-02-21T06:41:20;20.10;;;8.80;;
77821;SDS011;67012;53.712;10.728;2024-02-21T06:43:46;15.43;;;8.57;;
77821;SDS011;67012;53.712;10.728;2024-02-21T06:46:11;16.00;;;8.82;;
77821;SDS011;67012;53.712;10.728;2024-02-21T06:48:37;15.55;;;8.45;;
77821;SDS011;67012;53.712;10.728;2024-02-21T06:51:02;12.35;;;6.72;;
77821;SDS011;67012;53.712;10.728;2024-02-21T06:53:28;14.70;;;8.10;;
77821;SDS011;67012;53.712;10.728;2024-02-21T06:55:53;13.73;;;7.23;;
77821;SDS011;67012;53.712;10.728;2024-02-21T06:58:19;12.65;;;7.20;;
77821;SDS011;67012;53.712;10.728;2024-02-21T07:00:44;9.87;;;6.47;;
77821;SDS011;67012;53.712;10.728;2024-02-21T07:03:09;11.80;;;6.53;;
77821;SDS011;67012;53.712;10.728;2024-02-21T07:05:34;8.93;;;5.20;;
77821;SDS011;67012;53.712;10.728;2024-02-21T07:08:00;8.07;;;5.23;;
77821;SDS011;67012;53.712;10.728;2024-02-21T07:10:25;8.80;;;4.95;;
77821;SDS011;67012;53.712;10.728;2024-02-21T07:12:50;4.67;;;3.27;;
77821;SDS011;67012;53.712;10.728;2024-02-21T07:15:17;4.32;;;2.30;;
77821;SDS011;67012;53.712;10.728;2024-02-21T07:17:42;2.77;;;1.87;;
77821;SDS011;67012;53.712;10.728;2024-02-21T07:20:07;1.83;;;1.60;;
77821;SDS011;67012;53.712;10.728;2024-02-21T07:22:32;2.67;;;2.22;;
77821;SDS011;67012;53.712;10.728;2024-02-21T07:24:58;4.27;;;2.80;;
77821;SDS011;67012;53.712;10.728;2024-02-21T07:27:23;6.93;;;3.87;;
77821;SDS011;67012;53.712;10.728;2024-02-21T07:29:52;8.48;;;4.47;;
77821;SDS011;67012;53.712;10.728;2024-02-21T07:32:18;6.30;;;3.83;;
77821;SDS011;67012;53.712;10.728;2024-02-21T07:34:43;4.33;;;3.10;;
77821;SDS011;67012;53.712;10.728;2024-02-21T07:37:08;4.97;;;2.50;;
77821;SDS011;67012;53.712;10.728;2024-02-21T07:39:35;3.33;;;2.40;;
77821;SDS011;67012;53.712;10.728;2024-02-21T07:42:01;3.55;;;1.90;;
77821;SDS011;67012;53.712;10.728;2024-02-21T07:44:26;3.67;;;1.80;;
77821;SDS011;67012;53.712;10.728;2024-02-21T07:46:51;1.87;;;1.50;;
77821;SDS011;67012;53.712;10.728;2024-02-21T07:49:16;2.50;;;1.80;;
77821;SDS011;67012;53.712;10.728;2024-02-21T07:51:41;5.50;;;2.10;;
77821;SDS011;67012;53.712;10.728;2024-02-21T07:54:07;1.55;;;1.13;;
77821;SDS011;67012;53.712;10.728;2024-02-21T07:56:32;2.20;;;1.50;;
77821;SDS011;67012;53.712;10.728;2024-02-21T07:58:57;3.10;;;1.90;;
77821;SDS011;67012;53.712;10.728;2024-02-21T08:01:22;2.77;;;2.20;;
77821;SDS011;67012;53.712;10.728;2024-02-21T08:03:48;3.73;;;2.13;;
77821;SDS011;67012;53.712;10.728;2024-02-21T08:06:13;2.83;;;2.50;;
77821;SDS011;67012;53.712;10.728;2024-02-21T08:08:39;4.40;;;2.63;;
77821;SDS011;67012;53.712;10.728;2024-02-21T08:11:04;4.35;;;2.65;;
77821;SDS011;67012;53.712;10.728;2024-02-21T08:13:29;4.97;;;2.63;;
77821;SDS011;67012;53.712;10.728;2024-02-21T08:15:54;6.07;;;3.13;;
77821;SDS011;67012;53.712;10.728;2024-02-21T08:18:19;5.30;;;2.80;;
77821;SDS011;67012;53.712;10.728;2024-02-21T08:20:45;6.17;;;2.93;;
77821;SDS011;67012;53.712;10.728;2024-02-21T08:23:10;7.10;;;3.27;;
77821;SDS011;67012;53.712;10.728;2024-02-21T08:25:35;3.50;;;2.27;;
77821;SDS011;67012;53.712;10.728;2024-02-21T08:28:00;2.90;;;2.30;;
77821;SDS011;67012;53.712;10.728;2024-02-21T08:30:25;5.23;;;2.00;;
77821;SDS011;67012;53.712;10.728;2024-02-21T08:32:51;5.80;;;2.33;;
77821;SDS011;67012;53.712;10.728;2024-02-21T08:35:16;5.05;;;2.20;;
77821;SDS011;67012;53.712;10.728;2024-02-21T08:37:44;4.47;;;2.60;;
77821;SDS011;67012;53.712;10.728;2024-02-21T08:40:12;4.00;;;2.40;;
77821;SDS011;67012;53.712;10.728;2024-02-21T08:42:40;1.90;;;1.70;;
77821;SDS011;67012;53.712;10.728;2024-02-21T08:45:05;3.50;;;2.08;;
77821;SDS011;67012;53.712;10.728;2024-02-21T08:47:30;3.33;;;2.33;;
77821;SDS011;67012;53.712;10.728;2024-02-21T08:49:56;2.87;;;2.33;;
77821;SDS011;67012;53.712;10.728;2024-02-21T08:52:21;4.60;;;2.40;;
77821;SDS011;67012;53.712;10.728;2024-02-21T08:54:46;4.63;;;1.90;;
77821;SDS011;67012;53.712;10.728;2024-02-21T08:57:11;3.53;;;2.23;;
77821;SDS011;67012;53.712;10.728;2024-02-21T08:59:38;3.92;;;1.80;;
77821;SDS011;67012;53.712;10.728;2024-02-21T09:02:04;4.17;;;1.87;;
77821;SDS011;67012;53.712;10.728;2024-02-21T09:04:29;6.57;;;1.88;;
77821;SDS011;67012;53.712;10.728;2024-02-21T09:06:54;7.40;;;2.73;;
77821;SDS011;67012;53.712;10.728;2024-02-21T09:09:19;4.37;;;2.07;;
77821;SDS011;67012;53.712;10.728;2024-02-21T09:11:45;9.47;;;3.10;;
77821;SDS011;67012;53.712;10.728;2024-02-21T09:14:10;4.57;;;2.00;;
77821;SDS011;67012;53.712;10.728;2024-02-21T09:16:35;6.23;;;2.40;;
77821;SDS011;67012;53.712;10.728;2024-02-21T09:19:00;6.87;;;2.13;;
77821;SDS011;67012;53.712;10.728;2024-02-21T09:21:25;6.13;;;2.17;;
77821;SDS011;67012;53.712;10.728;2024-02-21T09:23:51;6.17;;;1.70;;
77821;SDS011;67012;53.712;10.728;2024-02-21T09:26:16;12.00;;;2.60;;
77821;SDS011;67012;53.712;10.728;2024-02-21T09:28:42;7.13;;;2.50;;
77821;SDS011;67012;53.712;10.728;2024-02-21T09:31:08;9.18;;;2.47;;
77821;SDS011;67012;53.712;10.728;2024-02-21T09:33:33;9.97;;;2.27;;
77821;SDS011;67012;53.712;10.728;2024-02-21T09:35:58;7.67;;;2.00;;
77821;SDS011;67012;53.712;10.728;2024-02-21T09:38:23;6.68;;;2.03;;
77821;SDS011;67012;53.712;10.728;2024-02-21T09:41:14;8.43;;;2.03;;
77821;SDS011;67012;53.712;10.728;2024-02-21T09:43:34;7.85;;;2.05;;
77821;SDS011;67012;53.712;10.728;2024-02-21T09:45:59;7.90;;;2.40;;
77821;SDS011;67012;53.712;10.728;2024-02-21T09:48:29;8.25;;;1.92;;
77821;SDS011;67012;53.712;10.728;2024-02-21T09:50:56;7.35;;;2.65;;
77821;SDS011;67012;53.712;10.728;2024-02-21T09:53:22;6.95;;;1.90;;
77821;SDS011;67012;53.712;10.728;2024-02-21T09:55:49;10.00;;;2.35;;
77821;SDS011;67012;53.712;10.728;2024-02-21T09:58:14;4.27;;;1.70;;
77821;SDS011;67012;53.712;10.728;2024-02-21T10:00:40;6.97;;;2.35;;
77821;SDS011;67012;53.712;10.728;2024-02-21T10:03:05;6.10;;;1.47;;
77821;SDS011;67012;53.712;10.728;2024-02-21T10:05:32;11.85;;;2.20;;
77821;SDS011;67012;53.712;10.728;2024-02-21T10:07:58;6.38;;;2.35;;
77821;SDS011;67012;53.712;10.728;2024-02-21T10:10:23;9.07;;;2.70;;
77821;SDS011;67012;53.712;10.728;2024-02-21T10:12:49;9.17;;;2.00;;
77821;SDS011;67012;53.712;10.728;2024-02-21T10:15:19;8.30;;;2.38;;
77821;SDS011;67012;53.712;10.728;2024-02-21T10:17:44;5.82;;;1.83;;
77821;SDS011;67012;53.712;10.728;2024-02-21T10:20:09;7.17;;;2.07;;
77821;SDS011;67012;53.712;10.728;2024-02-21T10:22:35;6.72;;;1.77;;
77821;SDS011;67012;53.712;10.728;2024-02-21T10:25:10;9.15;;;2.45;;
77821;SDS011;67012;53.712;10.728;2024-02-21T10:27:36;10.40;;;2.00;;
77821;SDS011;67012;53.712;10.728;2024-02-21T10:30:02;7.43;;;2.08;;
77821;SDS011;67012;53.712;10.728;2024-02-21T10:32:27;6.05;;;2.33;;
77821;SDS011;67012;53.712;10.728;2024-02-21T10:35:00;9.73;;;1.70;;
77821;SDS011;67012;53.712;10.728;2024-02-21T10:37:26;6.50;;;1.80;;
77821;SDS011;67012;53.712;10.728;2024-02-21T10:39:51;10.13;;;2.37;;
77821;SDS011;67012;53.712;10.728;2024-02-21T10:42:16;12.93;;;2.25;;
77821;SDS011;67012;53.712;10.728;2024-02-21T10:44:44;9.45;;;2.33;;
77821;SDS011;67012;53.712;10.728;2024-02-21T10:47:11;11.38;;;1.92;;
77821;SDS011;67012;53.712;10.728;2024-02-21T10:49:40;10.63;;;2.53;;
77821;SDS011;67012;53.712;10.728;2024-02-21T10:52:06;7.28;;;1.73;;
77821;SDS011;67012;53.712;10.728;2024-02-21T10:54:39;8.27;;;2.10;;
77821;SDS011;67012;53.712;10.728;2024-02-21T10:57:05;8.55;;;2.40;;
77821;SDS011;67012;53.712;10.728;2024-02-21T10:59:32;9.48;;;2.05;;
77821;SDS011;67012;53.712;10.728;2024-02-21T11:01:57;5.82;;;1.67;;
77821;SDS011;67012;53.712;10.728;2024-02-21T11:04:22;7.07;;;2.43;;
77821;SDS011;67012;53.712;10.728;2024-02-21T11:06:47;6.03;;;1.77;;
77821;SDS011;67012;53.712;10.728;2024-02-21T11:09:13;5.72;;;2.03;;
77821;SDS011;67012;53.712;10.728;2024-02-21T11:11:39;8.02;;;2.17;;
77821;SDS011;67012;53.712;10.728;2024-02-21T11:14:05;5.70;;;1.85;;
77821;SDS011;67012;53.712;10.728;2024-02-21T11:16:34;5.18;;;1.90;;
77821;SDS011;67012;53.712;10.728;2024-02-21T11:19:06;4.72;;;1.60;;
77821;SDS011;67012;53.712;10.728;2024-02-21T11:21:38;4.88;;;1.38;;
77821;SDS011;67012;53.712;10.728;2024-02-21T11:24:03;6.65;;;1.80;;
77821;SDS011;67012;53.712;10.728;2024-02-21T11:26:29;4.38;;;2.10;;
77821;SDS011;67012;53.712;10.728;2024-02-21T11:29:01;5.45;;;1.70;;
77821;SDS011;67012;53.712;10.728;2024-02-21T11:31:38;1.98;;;1.58;;
77821;SDS011;67012;53.712;10.728;2024-02-21T11:36:29;5.00;;;2.10;;
77821;SDS011;67012;53.712;10.728;2024-02-21T11:38:54;5.20;;;2.50;;
77821;SDS011;67012;53.712;10.728;2024-02-21T11:43:54;3.92;;;2.42;;
77821;SDS011;67012;53.712;10.728;2024-02-21T11:46:19;4.87;;;2.83;;
77821;SDS011;67012;53.712;10.728;2024-02-21T11:48:44;6.33;;;3.20;;
77821;SDS011;67012;53.712;10.728;2024-02-21T11:51:20;5.55;;;3.58;;
77821;SDS011;67012;53.712;10.728;2024-02-21T11:53:45;6.57;;;3.60;;
77821;SDS011;67012;53.712;10.728;2024-02-21T11:56:11;7.57;;;4.83;;
77821;SDS011;67012;53.712;10.728;2024-02-21T11:58:36;9.57;;;4.85;;
77821;SDS011;67012;53.712;10.728;2024-02-21T12:01:02;10.60;;;5.50;;
77821;SDS011;67012;53.712;10.728;2024-02-21T12:03:29;11.90;;;5.32;;
77821;SDS011;67012;53.712;10.728;2024-02-21T12:05:54;9.82;;;6.25;;
77821;SDS011;67012;53.712;10.728;2024-02-21T12:08:21;12.75;;;6.45;;
77821;SDS011;67012;53.712;10.728;2024-02-21T12:10:46;13.67;;;6.83;;
77821;SDS011;67012;53.712;10.728;2024-02-21T12:13:16;12.43;;;7.88;;
77821;SDS011;67012;53.712;10.728;2024-02-21T12:15:41;13.55;;;6.97;;
77821;SDS011;67012;53.712;10.728;2024-02-21T12:18:06;14.83;;;7.17;;
77821;SDS011;67012;53.712;10.728;2024-02-21T12:20:31;16.30;;;8.30;;
77821;SDS011;67012;53.712;10.728;2024-02-21T12:22:59;15.82;;;8.40;;
77821;SDS011;67012;53.712;10.728;2024-02-21T12:25:25;19.50;;;8.93;;
77821;SDS011;67012;53.712;10.728;2024-02-21T12:27:53;16.33;;;7.82;;
77821;SDS011;67012;53.712;10.728;2024-02-21T12:30:19;14.15;;;9.13;;
77821;SDS011;67012;53.712;10.728;2024-02-21T12:32:45;13.48;;;7.82;;
77821;SDS011;67012;53.712;10.728;2024-02-21T12:35:10;14.75;;;7.60;;
77821;SDS011;67012;53.712;10.728;2024-02-21T12:37:35;19.83;;;8.37;;
77821;SDS011;67012;53.712;10.728;2024-02-21T12:40:00;16.93;;;8.23;;
77821;SDS011;67012;53.712;10.728;2024-02-21T12:42:26;13.50;;;7.43;;
77821;SDS011;67012;53.712;10.728;2024-02-21T12:44:54;14.38;;;8.25;;
77821;SDS011;67012;53.712;10.728;2024-02-21T12:47:19;15.77;;;8.02;;
77821;SDS011;67012;53.712;10.728;2024-02-21T12:49:48;14.32;;;7.93;;
77821;SDS011;67012;53.712;10.728;2024-02-21T12:52:13;18.87;;;8.10;;
77821;SDS011;67012;53.712;10.728;2024-02-21T12:54:38;16.53;;;7.57;;
77821;SDS011;67012;53.712;10.728;2024-02-21T12:57:04;16.77;;;8.17;;
77821;SDS011;67012;53.712;10.728;2024-02-21T12:59:29;14.67;;;8.07;;
77821;SDS011;67012;53.712;10.728;2024-02-21T13:01:54;16.50;;;7.53;;
77821;SDS011;67012;53.712;10.728;2024-02-21T13:04:19;15.20;;;7.17;;
77821;SDS011;67012;53.712;10.728;2024-02-21T13:06:46;16.30;;;7.47;;
77821;SDS011;67012;53.712;10.728;2024-02-21T13:09:11;14.35;;;7.60;;
77821;SDS011;67012;53.712;10.728;2024-02-21T13:11:38;14.65;;;6.93;;
77821;SDS011;67012;53.712;10.728;2024-02-21T13:14:03;16.92;;;8.63;;
77821;SDS011;67012;53.712;10.728;2024-02-21T13:16:29;14.73;;;7.20;;
77821;SDS011;67012;53.712;10.728;2024-02-21T13:18:54;15.23;;;6.97;;
77821;SDS011;67012;53.712;10.728;2024-02-21T13:21:19;14.27;;;6.83;;
77821;SDS011;67012;53.712;10.728;2024-02-21T13:23:44;13.33;;;7.27;;
77821;SDS011;67012;53.712;10.728;2024-02-21T13:26:10;17.17;;;7.40;;
77821;SDS011;67012;53.712;10.728;2024-02-21T13:28:35;17.75;;;8.00;;
77821;SDS011;67012;53.712;10.728;2024-02-21T13:31:01;14.30;;;7.10;;
77821;SDS011;67012;53.712;10.728;2024-02-21T13:33:26;15.13;;;7.30;;
77821;SDS011;67012;53.712;10.728;2024-02-21T13:35:53;19.13;;;8.27;;
77821;SDS011;67012;53.712;10.728;2024-02-21T13:38:18;16.17;;;8.17;;
77821;SDS011;67012;53.712;10.728;2024-02-21T13:40:44;19.77;;;8.55;;
77821;SDS011;67012;53.712;10.728;2024-02-21T13:43:09;17.27;;;7.57;;
77821;SDS011;67012;53.712;10.728;2024-02-21T13:45:35;16.75;;;8.40;;
77821;SDS011;67012;53.712;10.728;2024-02-21T13:48:00;16.93;;;8.00;;
77821;SDS011;67012;53.712;10.728;2024-02-21T13:50:29;14.73;;;7.13;;
77821;SDS011;67012;53.712;10.728;2024-02-21T13:52:54;19.42;;;8.50;;
77821;SDS011;67012;53.712;10.728;2024-02-21T13:55:20;15.90;;;8.43;;
77821;SDS011;67012;53.712;10.728;2024-02-21T13:57:47;19.50;;;8.60;;
77821;SDS011;67012;53.712;10.728;2024-02-21T14:00:13;19.05;;;9.68;;
77821;SDS011;67012;53.712;10.728;2024-02-21T14:02:38;17.55;;;9.93;;
77821;SDS011;67012;53.712;10.728;2024-02-21T14:05:04;19.63;;;8.77;;
77821;SDS011;67012;53.712;10.728;2024-02-21T14:07:30;17.67;;;10.30;;
77821;SDS011;67012;53.712;10.728;2024-02-21T14:09:56;21.00;;;9.20;;
77821;SDS011;67012;53.712;10.728;2024-02-21T14:12:21;18.60;;;9.23;;
77821;SDS011;67012;53.712;10.728;2024-02-21T14:14:46;16.67;;;9.05;;
77821;SDS011;67012;53.712;10.728;2024-02-21T14:17:12;16.20;;;10.43;;
77821;SDS011;67012;53.712;10.728;2024-02-21T14:19:38;17.17;;;9.60;;
77821;SDS011;67012;53.712;10.728;2024-02-21T14:22:03;17.67;;;9.07;;
77821;SDS011;67012;53.712;10.728;2024-02-21T14:24:28;14.63;;;9.27;;
77821;SDS011;67012;53.712;10.728;2024-02-21T14:26:53;16.00;;;9.87;;
77821;SDS011;67012;53.712;10.728;2024-02-21T14:29:19;15.27;;;9.70;;
77821;SDS011;67012;53.712;10.728;2024-02-21T14:31:44;23.13;;;10.13;;
77821;SDS011;67012;53.712;10.728;2024-02-21T14:34:09;13.43;;;9.13;;
77821;SDS011;67012;53.712;10.728;2024-02-21T14:36:34;16.63;;;10.80;;
77821;SDS011;67012;53.712;10.728;2024-02-21T14:38:59;19.00;;;9.27;;
77821;SDS011;67012;53.712;10.728;2024-02-21T14:41:25;16.43;;;9.47;;
77821;SDS011;67012;53.712;10.728;2024-02-21T14:43:50;19.08;;;10.25;;
77821;SDS011;67012;53.712;10.728;2024-02-21T14:46:16;15.50;;;9.60;;
77821;SDS011;67012;53.712;10.728;2024-02-21T14:48:42;17.52;;;9.50;;
77821;SDS011;67012;53.712;10.728;2024-02-21T14:51:07;19.67;;;10.13;;
77821;SDS011;67012;53.712;10.728;2024-02-21T14:53:32;15.57;;;9.67;;
77821;SDS011;67012;53.712;10.728;2024-02-21T14:55:57;18.33;;;10.60;;
77821;SDS011;67012;53.712;10.728;2024-02-21T14:58:25;17.30;;;9.48;;
77821;SDS011;67012;53.712;10.728;2024-02-21T15:00:52;14.48;;;8.43;;
77821;SDS011;67012;53.712;10.728;2024-02-21T15:03:17;17.00;;;10.00;;
77821;SDS011;67012;53.712;10.728;2024-02-21T15:08:11;14.35;;;9.50;;
77821;SDS011;67012;53.712;10.728;2024-02-21T15:10:36;15.23;;;9.35;;
77821;SDS011;67012;53.712;10.728;2024-02-21T15:13:02;17.63;;;10.23;;
77821;SDS011;67012;53.712;10.728;2024-02-21T15:15:28;16.05;;;10.45;;
77821;SDS011;67012;53.712;10.728;2024-02-21T15:17:53;60.07;;;35.10;;
77821;SDS011;67012;53.712;10.728;2024-02-21T15:20:18;62.87;;;34.70;;
77821;SDS011;67012;53.712;10.728;2024-02-21T15:22:43;20.07;;;12.10;;
77821;SDS011;67012;53.712;10.728;2024-02-21T15:25:09;21.88;;;9.35;;
77821;SDS011;67012;53.712;10.728;2024-02-21T15:27:39;15.95;;;9.95;;
77821;SDS011;67012;53.712;10.728;2024-02-21T15:30:05;17.47;;;10.07;;
77821;SDS011;67012;53.712;10.728;2024-02-21T15:32:30;20.13;;;13.00;;
